sensor_id;sensor_type;location;lat;lon;timestamp;temperature;humidity
64833;HTU21D;51290;45.060;38.948;2024-01-16T00:00:09;3.89;72.14
64833;HTU21D;51290;45.060;38.948;2024-01-16T00:02:35;3.91;72.13
64833;HTU21D;51290;45.060;38.948;2024-01-16T00:05:01;3.97;72.08
64833;HTU21D;51290;45.060;38.948;2024-01-16T00:07:26;3.99;72.07
64833;HTU21D;51290;45.060;38.948;2024-01-16T00:09:52;4.00;72.00
64833;HTU21D;51290;45.060;38.948;2024-01-16T00:12:20;4.03;71.96
64833;HTU21D;51290;45.060;38.948;2024-01-16T00:14:46;4.03;71.90
64833;HTU21D;51290;45.060;38.948;2024-01-16T00:17:12;4.02;71.80
64833;HTU21D;51290;45.060;38.948;2024-01-16T00:19:38;3.99;71.81
64833;HTU21D;51290;45.060;38.948;2024-01-16T00:22:04;4.00;71.81
64833;HTU21D;51290;45.060;38.948;2024-01-16T00:24:30;3.97;71.80
64833;HTU21D;51290;45.060;38.948;2024-01-16T00:26:56;3.94;71.82
64833;HTU21D;51290;45.060;38.948;2024-01-16T00:29:22;3.92;71.84
64833;HTU21D;51290;45.060;38.948;2024-01-16T00:31:49;3.90;71.84
64833;HTU21D;51290;45.060;38.948;2024-01-16T00:34:15;3.87;71.84
64833;HTU21D;51290;45.060;38.948;2024-01-16T00:36:41;3.84;71.85
64833;HTU21D;51290;45.060;38.948;2024-01-16T00:39:08;3.79;71.82
64833;HTU21D;51290;45.060;38.948;2024-01-16T00:41:34;3.75;71.84
64833;HTU21D;51290;45.060;38.948;2024-01-16T00:44:00;3.72;71.88
64833;HTU21D;51290;45.060;38.948;2024-01-16T00:46:26;3.67;71.90
64833;HTU21D;51290;45.060;38.948;2024-01-16T00:48:52;3.62;71.99
64833;HTU21D;51290;45.060;38.948;2024-01-16T00:51:18;3.60;72.14
64833;HTU21D;51290;45.060;38.948;2024-01-16T00:53:44;3.59;72.20
64833;HTU21D;51290;45.060;38.948;2024-01-16T00:56:11;3.55;72.10
64833;HTU21D;51290;45.060;38.948;2024-01-16T00:58:38;3.52;72.08
64833;HTU21D;51290;45.060;38.948;2024-01-16T01:01:04;3.48;72.13
64833;HTU21D;51290;45.060;38.948;2024-01-16T01:03:30;3.44;72.16
64833;HTU21D;51290;45.060;38.948;2024-01-16T01:05:57;3.43;72.23
64833;HTU21D;51290;45.060;38.948;2024-01-16T01:08:23;3.41;72.26
64833;HTU21D;51290;45.060;38.948;2024-01-16T01:10:49;3.39;72.37
64833;HTU21D;51290;45.060;38.948;2024-01-16T01:13:15;3.39;72.44
64833;HTU21D;51290;45.060;38.948;2024-01-16T01:15:41;3.41;72.53
64833;HTU21D;51290;45.060;38.948;2024-01-16T01:18:07;3.43;72.54
64833;HTU21D;51290;45.060;38.948;2024-01-16T01:20:33;3.44;72.58
64833;HTU21D;51290;45.060;38.948;2024-01-16T01:22:59;3.46;72.59
64833;HTU21D;51290;45.060;38.948;2024-01-16T01:25:25;3.48;72.68
64833;HTU21D;51290;45.060;38.948;2024-01-16T01:27:52;3.53;72.69
64833;HTU21D;51290;45.060;38.948;2024-01-16T01:30:18;3.54;72.66
64833;HTU21D;51290;45.060;38.948;2024-01-16T01:32:44;3.54;72.58
64833;HTU21D;51290;45.060;38.948;2024-01-16T01:35:10;3.52;72.52
64833;HTU21D;51290;45.060;38.948;2024-01-16T01:37:37;3.53;72.52
64833;HTU21D;51290;45.060;38.948;2024-01-16T01:40:04;3.53;72.65
64833;HTU21D;51290;45.060;38.948;2024-01-16T01:42:30;3.53;72.71
64833;HTU21D;51290;45.060;38.948;2024-01-16T01:44:56;3.56;72.76
64833;HTU21D;51290;45.060;38.948;2024-01-16T01:47:22;3.57;72.78
64833;HTU21D;51290;45.060;38.948;2024-01-16T01:49:48;3.58;72.77
64833;HTU21D;51290;45.060;38.948;2024-01-16T01:52:15;3.59;72.70
64833;HTU21D;51290;45.060;38.948;2024-01-16T01:54:41;3.58;72.63
64833;HTU21D;51290;45.060;38.948;2024-01-16T01:57:08;3.56;72.62
64833;HTU21D;51290;45.060;38.948;2024-01-16T01:59:35;3.54;72.67
64833;HTU21D;51290;45.060;38.948;2024-01-16T02:02:02;3.54;72.73
64833;HTU21D;51290;45.060;38.948;2024-01-16T02:04:29;3.54;72.70
64833;HTU21D;51290;45.060;38.948;2024-01-16T02:06:57;3.54;72.65
64833;HTU21D;51290;45.060;38.948;2024-01-16T02:09:24;3.50;72.65
64833;HTU21D;51290;45.060;38.948;2024-01-16T02:11:50;3.50;72.76
64833;HTU21D;51290;45.060;38.948;2024-01-16T02:14:19;3.55;73.04
64833;HTU21D;51290;45.060;38.948;2024-01-16T02:16:45;3.64;73.34
64833;HTU21D;51290;45.060;38.948;2024-01-16T02:19:11;3.80;73.41
64833;HTU21D;51290;45.060;38.948;2024-01-16T02:21:41;3.93;73.11
64833;HTU21D;51290;45.060;38.948;2024-01-16T02:24:08;4.00;72.80
64833;HTU21D;51290;45.060;38.948;2024-01-16T02:26:35;4.03;72.70
64833;HTU21D;51290;45.060;38.948;2024-01-16T02:29:02;4.06;72.63
64833;HTU21D;51290;45.060;38.948;2024-01-16T02:31:29;4.07;72.60
64833;HTU21D;51290;45.060;38.948;2024-01-16T02:33:55;4.05;72.46
64833;HTU21D;51290;45.060;38.948;2024-01-16T02:36:21;4.03;72.39
64833;HTU21D;51290;45.060;38.948;2024-01-16T02:38:47;4.01;72.41
64833;HTU21D;51290;45.060;38.948;2024-01-16T02:41:14;3.98;72.39
64833;HTU21D;51290;45.060;38.948;2024-01-16T02:43:42;3.95;72.51
64833;HTU21D;51290;45.060;38.948;2024-01-16T02:46:08;3.93;72.44
64833;HTU21D;51290;45.060;38.948;2024-01-16T02:48:37;3.92;72.48
64833;HTU21D;51290;45.060;38.948;2024-01-16T02:51:04;3.90;72.35
64833;HTU21D;51290;45.060;38.948;2024-01-16T02:53:31;3.87;72.31
64833;HTU21D;51290;45.060;38.948;2024-01-16T02:55:57;3.87;72.57
64833;HTU21D;51290;45.060;38.948;2024-01-16T02:58:26;3.91;72.69
64833;HTU21D;51290;45.060;38.948;2024-01-16T03:00:53;3.97;72.64
64833;HTU21D;51290;45.060;38.948;2024-01-16T03:03:19;4.00;72.53
64833;HTU21D;51290;45.060;38.948;2024-01-16T03:05:46;4.03;72.57
64833;HTU21D;51290;45.060;38.948;2024-01-16T03:08:12;4.10;72.67
64833;HTU21D;51290;45.060;38.948;2024-01-16T03:10:38;4.24;72.62
64833;HTU21D;51290;45.060;38.948;2024-01-16T03:13:04;4.37;72.37
64833;HTU21D;51290;45.060;38.948;2024-01-16T03:15:30;4.50;72.09
64833;HTU21D;51290;45.060;38.948;2024-01-16T03:18:00;4.61;71.76
64833;HTU21D;51290;45.060;38.948;2024-01-16T03:20:27;4.66;71.35
64833;HTU21D;51290;45.060;38.948;2024-01-16T03:22:53;4.67;71.09
64833;HTU21D;51290;45.060;38.948;2024-01-16T03:25:19;4.68;70.93
64833;HTU21D;51290;45.060;38.948;2024-01-16T03:27:47;4.66;70.76
64833;HTU21D;51290;45.060;38.948;2024-01-16T03:30:13;4.64;70.73
64833;HTU21D;51290;45.060;38.948;2024-01-16T03:32:39;4.59;70.68
64833;HTU21D;51290;45.060;38.948;2024-01-16T03:35:06;4.56;70.66
64833;HTU21D;51290;45.060;38.948;2024-01-16T03:37:33;4.54;70.73
64833;HTU21D;51290;45.060;38.948;2024-01-16T03:39:59;4.53;70.77
64833;HTU21D;51290;45.060;38.948;2024-01-16T03:42:26;4.54;70.84
64833;HTU21D;51290;45.060;38.948;2024-01-16T03:44:52;4.56;70.77
64833;HTU21D;51290;45.060;38.948;2024-01-16T03:47:18;4.59;70.60
64833;HTU21D;51290;45.060;38.948;2024-01-16T03:49:44;4.60;70.33
64833;HTU21D;51290;45.060;38.948;2024-01-16T03:52:10;4.59;70.11
64833;HTU21D;51290;45.060;38.948;2024-01-16T03:54:36;4.59;70.01
64833;HTU21D;51290;45.060;38.948;2024-01-16T03:57:02;4.57;69.99
64833;HTU21D;51290;45.060;38.948;2024-01-16T03:59:27;4.58;70.00
64833;HTU21D;51290;45.060;38.948;2024-01-16T04:01:53;4.59;69.99
64833;HTU21D;51290;45.060;38.948;2024-01-16T04:04:19;4.59;69.89
64833;HTU21D;51290;45.060;38.948;2024-01-16T04:06:49;4.60;69.77
64833;HTU21D;51290;45.060;38.948;2024-01-16T04:09:14;4.60;69.68
64833;HTU21D;51290;45.060;38.948;2024-01-16T04:11:41;4.60;69.53
64833;HTU21D;51290;45.060;38.948;2024-01-16T04:14:07;4.60;69.37
64833;HTU21D;51290;45.060;38.948;2024-01-16T04:16:32;4.58;69.27
64833;HTU21D;51290;45.060;38.948;2024-01-16T04:18:58;4.57;69.20
64833;HTU21D;51290;45.060;38.948;2024-01-16T04:21:25;4.56;69.20
64833;HTU21D;51290;45.060;38.948;2024-01-16T04:23:51;4.54;69.13
64833;HTU21D;51290;45.060;38.948;2024-01-16T04:26:17;4.56;69.08
64833;HTU21D;51290;45.060;38.948;2024-01-16T04:28:44;4.58;69.12
64833;HTU21D;51290;45.060;38.948;2024-01-16T04:31:10;4.59;69.22
64833;HTU21D;51290;45.060;38.948;2024-01-16T04:33:37;4.62;69.28
64833;HTU21D;51290;45.060;38.948;2024-01-16T04:36:05;4.64;69.24
64833;HTU21D;51290;45.060;38.948;2024-01-16T04:38:31;4.65;69.04
64833;HTU21D;51290;45.060;38.948;2024-01-16T04:40:57;4.67;69.02
64833;HTU21D;51290;45.060;38.948;2024-01-16T04:43:26;4.71;69.11
64833;HTU21D;51290;45.060;38.948;2024-01-16T04:45:52;4.74;69.12
64833;HTU21D;51290;45.060;38.948;2024-01-16T04:48:18;4.76;69.10
64833;HTU21D;51290;45.060;38.948;2024-01-16T04:50:44;4.76;68.95
64833;HTU21D;51290;45.060;38.948;2024-01-16T04:53:11;4.75;68.87
64833;HTU21D;51290;45.060;38.948;2024-01-16T04:55:37;4.76;68.96
64833;HTU21D;51290;45.060;38.948;2024-01-16T04:58:03;4.78;69.04
64833;HTU21D;51290;45.060;38.948;2024-01-16T05:00:29;4.80;69.01
64833;HTU21D;51290;45.060;38.948;2024-01-16T05:02:55;4.82;68.87
64833;HTU21D;51290;45.060;38.948;2024-01-16T05:05:21;4.81;68.68
64833;HTU21D;51290;45.060;38.948;2024-01-16T05:07:47;4.80;68.48
64833;HTU21D;51290;45.060;38.948;2024-01-16T05:10:13;4.79;68.44
64833;HTU21D;51290;45.060;38.948;2024-01-16T05:12:40;4.78;68.41
64833;HTU21D;51290;45.060;38.948;2024-01-16T05:15:06;4.79;68.35
64833;HTU21D;51290;45.060;38.948;2024-01-16T05:17:33;4.77;68.27
64833;HTU21D;51290;45.060;38.948;2024-01-16T05:19:59;4.76;68.10
64833;HTU21D;51290;45.060;38.948;2024-01-16T05:22:25;4.75;68.10
64833;HTU21D;51290;45.060;38.948;2024-01-16T05:24:51;4.71;68.10
64833;HTU21D;51290;45.060;38.948;2024-01-16T05:27:17;4.69;68.12
64833;HTU21D;51290;45.060;38.948;2024-01-16T05:29:43;4.67;68.14
64833;HTU21D;51290;45.060;38.948;2024-01-16T05:32:09;4.65;68.21
64833;HTU21D;51290;45.060;38.948;2024-01-16T05:34:35;4.66;68.30
64833;HTU21D;51290;45.060;38.948;2024-01-16T05:37:01;4.67;68.37
64833;HTU21D;51290;45.060;38.948;2024-01-16T05:39:28;4.69;68.43
64833;HTU21D;51290;45.060;38.948;2024-01-16T05:41:54;4.73;68.46
64833;HTU21D;51290;45.060;38.948;2024-01-16T05:44:20;4.76;68.48
64833;HTU21D;51290;45.060;38.948;2024-01-16T05:46:46;4.80;68.45
64833;HTU21D;51290;45.060;38.948;2024-01-16T05:49:12;4.84;68.52
64833;HTU21D;51290;45.060;38.948;2024-01-16T05:51:38;4.91;68.58
64833;HTU21D;51290;45.060;38.948;2024-01-16T05:54:04;4.96;68.58
64833;HTU21D;51290;45.060;38.948;2024-01-16T05:56:31;5.04;68.55
64833;HTU21D;51290;45.060;38.948;2024-01-16T05:58:57;5.10;68.12
64833;HTU21D;51290;45.060;38.948;2024-01-16T06:01:23;5.16;67.88
64833;HTU21D;51290;45.060;38.948;2024-01-16T06:03:49;5.22;67.77
64833;HTU21D;51290;45.060;38.948;2024-01-16T06:06:16;5.26;67.63
64833;HTU21D;51290;45.060;38.948;2024-01-16T06:08:42;5.32;67.48
64833;HTU21D;51290;45.060;38.948;2024-01-16T06:11:07;5.34;67.38
64833;HTU21D;51290;45.060;38.948;2024-01-16T06:13:33;5.37;67.30
64833;HTU21D;51290;45.060;38.948;2024-01-16T06:15:59;5.39;67.17
64833;HTU21D;51290;45.060;38.948;2024-01-16T06:18:25;5.45;67.17
64833;HTU21D;51290;45.060;38.948;2024-01-16T06:20:51;5.48;67.17
64833;HTU21D;51290;45.060;38.948;2024-01-16T06:23:17;5.53;67.10
64833;HTU21D;51290;45.060;38.948;2024-01-16T06:25:45;5.59;67.01
64833;HTU21D;51290;45.060;38.948;2024-01-16T06:28:11;5.64;67.04
64833;HTU21D;51290;45.060;38.948;2024-01-16T06:30:37;5.67;66.95
64833;HTU21D;51290;45.060;38.948;2024-01-16T06:33:04;5.69;66.96
64833;HTU21D;51290;45.060;38.948;2024-01-16T06:35:30;5.74;66.83
64833;HTU21D;51290;45.060;38.948;2024-01-16T06:37:56;5.76;66.89
64833;HTU21D;51290;45.060;38.948;2024-01-16T06:40:22;5.78;66.98
64833;HTU21D;51290;45.060;38.948;2024-01-16T06:42:49;5.81;67.07
64833;HTU21D;51290;45.060;38.948;2024-01-16T06:45:15;5.85;67.09
64833;HTU21D;51290;45.060;38.948;2024-01-16T06:47:41;5.92;67.17
64833;HTU21D;51290;45.060;38.948;2024-01-16T06:50:07;6.00;67.30
64833;HTU21D;51290;45.060;38.948;2024-01-16T06:52:33;6.10;67.41
64833;HTU21D;51290;45.060;38.948;2024-01-16T06:55:00;6.22;67.41
64833;HTU21D;51290;45.060;38.948;2024-01-16T06:57:26;6.38;67.47
64833;HTU21D;51290;45.060;38.948;2024-01-16T06:59:53;6.54;67.46
64833;HTU21D;51290;45.060;38.948;2024-01-16T07:02:19;6.72;67.47
64833;HTU21D;51290;45.060;38.948;2024-01-16T07:04:45;6.94;67.45
64833;HTU21D;51290;45.060;38.948;2024-01-16T07:07:11;7.19;67.43
64833;HTU21D;51290;45.060;38.948;2024-01-16T07:09:37;7.43;67.29
64833;HTU21D;51290;45.060;38.948;2024-01-16T07:12:03;7.69;67.22
64833;HTU21D;51290;45.060;38.948;2024-01-16T07:14:30;7.97;67.14
64833;HTU21D;51290;45.060;38.948;2024-01-16T07:16:56;8.26;66.98
64833;HTU21D;51290;45.060;38.948;2024-01-16T07:19:22;8.53;66.83
64833;HTU21D;51290;45.060;38.948;2024-01-16T07:21:48;8.86;66.65
64833;HTU21D;51290;45.060;38.948;2024-01-16T07:24:14;9.21;66.17
64833;HTU21D;51290;45.060;38.948;2024-01-16T07:26:40;9.59;65.62
64833;HTU21D;51290;45.060;38.948;2024-01-16T07:29:07;9.98;65.30
64833;HTU21D;51290;45.060;38.948;2024-01-16T07:31:33;10.37;64.72
64833;HTU21D;51290;45.060;38.948;2024-01-16T07:33:59;10.72;64.40
64833;HTU21D;51290;45.060;38.948;2024-01-16T07:36:25;11.04;63.72
64833;HTU21D;51290;45.060;38.948;2024-01-16T07:38:51;11.33;63.24
64833;HTU21D;51290;45.060;38.948;2024-01-16T07:41:17;11.59;62.64
64833;HTU21D;51290;45.060;38.948;2024-01-16T07:43:43;11.86;62.26
64833;HTU21D;51290;45.060;38.948;2024-01-16T07:46:09;12.11;61.12
64833;HTU21D;51290;45.060;38.948;2024-01-16T07:48:35;12.32;60.64
64833;HTU21D;51290;45.060;38.948;2024-01-16T07:51:01;12.48;59.57
64833;HTU21D;51290;45.060;38.948;2024-01-16T07:53:27;12.63;57.64
64833;HTU21D;51290;45.060;38.948;2024-01-16T07:55:54;12.79;57.86
64833;HTU21D;51290;45.060;38.948;2024-01-16T07:58:20;12.94;57.55
64833;HTU21D;51290;45.060;38.948;2024-01-16T08:00:46;13.09;56.86
64833;HTU21D;51290;45.060;38.948;2024-01-16T08:03:12;13.22;56.14
64833;HTU21D;51290;45.060;38.948;2024-01-16T08:05:40;13.36;54.77
64833;HTU21D;51290;45.060;38.948;2024-01-16T08:08:09;13.50;53.04
64833;HTU21D;51290;45.060;38.948;2024-01-16T08:10:35;13.63;51.93
64833;HTU21D;51290;45.060;38.948;2024-01-16T08:13:01;13.74;52.01
64833;HTU21D;51290;45.060;38.948;2024-01-16T08:15:27;13.82;51.08
64833;HTU21D;51290;45.060;38.948;2024-01-16T08:17:53;13.88;51.37
64833;HTU21D;51290;45.060;38.948;2024-01-16T08:20:20;13.97;51.95
64833;HTU21D;51290;45.060;38.948;2024-01-16T08:22:46;14.04;52.43
64833;HTU21D;51290;45.060;38.948;2024-01-16T08:25:12;14.08;51.82
64833;HTU21D;51290;45.060;38.948;2024-01-16T08:27:38;14.11;51.11
64833;HTU21D;51290;45.060;38.948;2024-01-16T08:30:05;14.17;51.46
64833;HTU21D;51290;45.060;38.948;2024-01-16T08:32:32;14.22;50.20
64833;HTU21D;51290;45.060;38.948;2024-01-16T08:34:59;14.27;50.02
64833;HTU21D;51290;45.060;38.948;2024-01-16T08:37:25;14.32;48.94
64833;HTU21D;51290;45.060;38.948;2024-01-16T08:39:51;14.38;48.88
64833;HTU21D;51290;45.060;38.948;2024-01-16T08:42:17;14.43;48.47
64833;HTU21D;51290;45.060;38.948;2024-01-16T08:44:44;14.48;48.64
64833;HTU21D;51290;45.060;38.948;2024-01-16T08:47:10;14.54;47.80
64833;HTU21D;51290;45.060;38.948;2024-01-16T08:49:36;14.57;47.94
64833;HTU21D;51290;45.060;38.948;2024-01-16T08:52:04;14.60;47.50
64833;HTU21D;51290;45.060;38.948;2024-01-16T08:54:31;14.60;47.39
64833;HTU21D;51290;45.060;38.948;2024-01-16T08:56:57;14.59;47.38
64833;HTU21D;51290;45.060;38.948;2024-01-16T08:59:24;14.57;47.32
64833;HTU21D;51290;45.060;38.948;2024-01-16T09:01:52;14.58;47.25
64833;HTU21D;51290;45.060;38.948;2024-01-16T09:04:18;14.56;46.63
64833;HTU21D;51290;45.060;38.948;2024-01-16T09:06:44;14.55;46.72
64833;HTU21D;51290;45.060;38.948;2024-01-16T09:09:11;14.58;46.28
64833;HTU21D;51290;45.060;38.948;2024-01-16T09:11:38;14.64;46.83
64833;HTU21D;51290;45.060;38.948;2024-01-16T09:14:04;14.68;46.13
64833;HTU21D;51290;45.060;38.948;2024-01-16T09:16:30;14.72;45.91
64833;HTU21D;51290;45.060;38.948;2024-01-16T09:18:56;14.79;46.23
64833;HTU21D;51290;45.060;38.948;2024-01-16T09:21:22;14.84;46.25
64833;HTU21D;51290;45.060;38.948;2024-01-16T09:23:48;14.92;46.13
64833;HTU21D;51290;45.060;38.948;2024-01-16T09:26:14;14.98;45.45
64833;HTU21D;51290;45.060;38.948;2024-01-16T09:28:40;15.06;45.67
64833;HTU21D;51290;45.060;38.948;2024-01-16T09:31:06;15.13;44.58
64833;HTU21D;51290;45.060;38.948;2024-01-16T09:33:34;15.21;44.44
64833;HTU21D;51290;45.060;38.948;2024-01-16T09:36:00;15.27;44.49
64833;HTU21D;51290;45.060;38.948;2024-01-16T09:38:26;15.31;44.06
64833;HTU21D;51290;45.060;38.948;2024-01-16T09:40:53;15.32;43.39
64833;HTU21D;51290;45.060;38.948;2024-01-16T09:43:23;15.34;43.60
64833;HTU21D;51290;45.060;38.948;2024-01-16T09:45:49;15.41;44.00
64833;HTU21D;51290;45.060;38.948;2024-01-16T09:48:17;15.45;43.67
64833;HTU21D;51290;45.060;38.948;2024-01-16T09:50:43;15.49;43.86
64833;HTU21D;51290;45.060;38.948;2024-01-16T09:53:09;15.57;43.32
64833;HTU21D;51290;45.060;38.948;2024-01-16T09:55:37;15.62;44.16
64833;HTU21D;51290;45.060;38.948;2024-01-16T09:58:05;15.66;42.95
64833;HTU21D;51290;45.060;38.948;2024-01-16T10:00:32;15.67;43.45
64833;HTU21D;51290;45.060;38.948;2024-01-16T10:02:59;15.66;42.32
64833;HTU21D;51290;45.060;38.948;2024-01-16T10:05:26;15.60;41.99
64833;HTU21D;51290;45.060;38.948;2024-01-16T10:07:52;15.57;42.21
64833;HTU21D;51290;45.060;38.948;2024-01-16T10:10:18;15.53;42.16
64833;HTU21D;51290;45.060;38.948;2024-01-16T10:12:46;15.52;42.07
64833;HTU21D;51290;45.060;38.948;2024-01-16T10:15:14;15.48;42.30
64833;HTU21D;51290;45.060;38.948;2024-01-16T10:17:42;15.42;41.96
64833;HTU21D;51290;45.060;38.948;2024-01-16T10:20:09;15.37;42.39
64833;HTU21D;51290;45.060;38.948;2024-01-16T10:23:04;15.30;42.18
64833;HTU21D;51290;45.060;38.948;2024-01-16T10:25:29;15.26;42.82
64833;HTU21D;51290;45.060;38.948;2024-01-16T10:28:05;15.21;42.58
64833;HTU21D;51290;45.060;38.948;2024-01-16T10:30:34;15.13;42.72
64833;HTU21D;51290;45.060;38.948;2024-01-16T10:33:14;15.07;42.34
64833;HTU21D;51290;45.060;38.948;2024-01-16T10:35:43;15.01;42.40
64833;HTU21D;51290;45.060;38.948;2024-01-16T10:38:20;14.95;42.39
64833;HTU21D;51290;45.060;38.948;2024-01-16T10:40:47;14.93;42.57
64833;HTU21D;51290;45.060;38.948;2024-01-16T10:43:18;14.89;42.90
64833;HTU21D;51290;45.060;38.948;2024-01-16T10:45:46;14.85;43.45
64833;HTU21D;51290;45.060;38.948;2024-01-16T10:48:13;14.84;44.22
64833;HTU21D;51290;45.060;38.948;2024-01-16T10:50:41;14.80;44.79
64833;HTU21D;51290;45.060;38.948;2024-01-16T10:53:08;14.75;45.21
64833;HTU21D;51290;45.060;38.948;2024-01-16T10:55:50;14.71;45.86
64833;HTU21D;51290;45.060;38.948;2024-01-16T10:58:23;14.69;46.45
64833;HTU21D;51290;45.060;38.948;2024-01-16T11:00:53;14.66;47.00
64833;HTU21D;51290;45.060;38.948;2024-01-16T11:03:24;14.60;47.56
64833;HTU21D;51290;45.060;38.948;2024-01-16T11:05:52;14.54;48.15
64833;HTU21D;51290;45.060;38.948;2024-01-16T11:08:20;14.48;48.65
64833;HTU21D;51290;45.060;38.948;2024-01-16T11:10:48;14.40;49.27
64833;HTU21D;51290;45.060;38.948;2024-01-16T11:13:17;14.33;49.85
64833;HTU21D;51290;45.060;38.948;2024-01-16T11:15:46;14.26;50.34
64833;HTU21D;51290;45.060;38.948;2024-01-16T11:18:14;14.17;50.90
64833;HTU21D;51290;45.060;38.948;2024-01-16T11:20:43;14.07;51.14
64833;HTU21D;51290;45.060;38.948;2024-01-16T11:23:11;13.96;51.62
64833;HTU21D;51290;45.060;38.948;2024-01-16T11:25:38;13.86;52.14
64833;HTU21D;51290;45.060;38.948;2024-01-16T11:28:14;13.78;52.53
64833;HTU21D;51290;45.060;38.948;2024-01-16T11:30:42;13.67;53.02
64833;HTU21D;51290;45.060;38.948;2024-01-16T11:35:57;13.50;53.97
64833;HTU21D;51290;45.060;38.948;2024-01-16T11:38:25;13.40;54.32
64833;HTU21D;51290;45.060;38.948;2024-01-16T11:40:53;13.32;54.78
64833;HTU21D;51290;45.060;38.948;2024-01-16T11:43:35;13.21;55.23
64833;HTU21D;51290;45.060;38.948;2024-01-16T11:46:06;13.12;55.63
64833;HTU21D;51290;45.060;38.948;2024-01-16T11:48:35;13.02;56.12
64833;HTU21D;51290;45.060;38.948;2024-01-16T11:51:24;12.92;56.57
64833;HTU21D;51290;45.060;38.948;2024-01-16T11:53:50;12.85;56.86
64833;HTU21D;51290;45.060;38.948;2024-01-16T11:56:25;12.76;57.26
64833;HTU21D;51290;45.060;38.948;2024-01-16T12:01:31;12.58;57.76
64833;HTU21D;51290;45.060;38.948;2024-01-16T12:04:07;12.51;58.08
64833;HTU21D;51290;45.060;38.948;2024-01-16T12:06:36;12.43;58.49
64833;HTU21D;51290;45.060;38.948;2024-01-16T12:09:13;12.36;59.08
64833;HTU21D;51290;45.060;38.948;2024-01-16T12:11:40;12.29;59.37
64833;HTU21D;51290;45.060;38.948;2024-01-16T12:14:09;12.20;59.75
64833;HTU21D;51290;45.060;38.948;2024-01-16T12:16:35;12.15;59.95
64833;HTU21D;51290;45.060;38.948;2024-01-16T12:19:06;12.10;60.47
64833;HTU21D;51290;45.060;38.948;2024-01-16T12:21:35;12.03;60.75
64833;HTU21D;51290;45.060;38.948;2024-01-16T12:24:04;11.99;61.13
64833;HTU21D;51290;45.060;38.948;2024-01-16T12:26:31;11.94;61.41
64833;HTU21D;51290;45.060;38.948;2024-01-16T12:29:00;11.90;61.74
64833;HTU21D;51290;45.060;38.948;2024-01-16T12:31:27;11.88;61.99
64833;HTU21D;51290;45.060;38.948;2024-01-16T12:34:13;11.84;62.31
64833;HTU21D;51290;45.060;38.948;2024-01-16T12:36:39;11.83;62.93
64833;HTU21D;51290;45.060;38.948;2024-01-16T12:39:05;11.78;63.35
64833;HTU21D;51290;45.060;38.948;2024-01-16T12:41:37;11.73;64.01
64833;HTU21D;51290;45.060;38.948;2024-01-16T12:44:05;11.67;64.58
64833;HTU21D;51290;45.060;38.948;2024-01-16T12:46:31;11.58;65.50
64833;HTU21D;51290;45.060;38.948;2024-01-16T12:49:04;11.46;66.81
64833;HTU21D;51290;45.060;38.948;2024-01-16T12:51:32;11.36;67.24
64833;HTU21D;51290;45.060;38.948;2024-01-16T12:54:29;11.20;68.13
64833;HTU21D;51290;45.060;38.948;2024-01-16T12:56:59;11.11;68.92
64833;HTU21D;51290;45.060;38.948;2024-01-16T12:59:27;11.01;69.44
64833;HTU21D;51290;45.060;38.948;2024-01-16T13:01:57;10.93;70.22
64833;HTU21D;51290;45.060;38.948;2024-01-16T13:04:24;10.84;70.80
64833;HTU21D;51290;45.060;38.948;2024-01-16T13:06:50;10.77;71.47
64833;HTU21D;51290;45.060;38.948;2024-01-16T13:09:16;10.68;71.90
64833;HTU21D;51290;45.060;38.948;2024-01-16T13:11:53;10.62;72.31
64833;HTU21D;51290;45.060;38.948;2024-01-16T13:14:21;10.55;73.19
64833;HTU21D;51290;45.060;38.948;2024-01-16T13:16:48;10.48;73.64
64833;HTU21D;51290;45.060;38.948;2024-01-16T13:19:18;10.40;74.15
64833;HTU21D;51290;45.060;38.948;2024-01-16T13:21:45;10.31;74.51
64833;HTU21D;51290;45.060;38.948;2024-01-16T13:24:11;10.27;75.20
64833;HTU21D;51290;45.060;38.948;2024-01-16T13:26:39;10.21;75.55
64833;HTU21D;51290;45.060;38.948;2024-01-16T13:29:05;10.16;76.08
64833;HTU21D;51290;45.060;38.948;2024-01-16T13:31:32;10.11;76.43
64833;HTU21D;51290;45.060;38.948;2024-01-16T13:33:59;10.07;76.62
64833;HTU21D;51290;45.060;38.948;2024-01-16T13:36:25;10.05;76.90
64833;HTU21D;51290;45.060;38.948;2024-01-16T13:38:52;10.00;77.31
64833;HTU21D;51290;45.060;38.948;2024-01-16T13:41:18;9.98;77.66
64833;HTU21D;51290;45.060;38.948;2024-01-16T13:43:44;9.96;77.95
64833;HTU21D;51290;45.060;38.948;2024-01-16T13:46:10;9.95;78.12
64833;HTU21D;51290;45.060;38.948;2024-01-16T13:48:36;9.93;78.39
64833;HTU21D;51290;45.060;38.948;2024-01-16T13:51:02;9.93;78.37
64833;HTU21D;51290;45.060;38.948;2024-01-16T13:53:30;9.92;78.61
64833;HTU21D;51290;45.060;38.948;2024-01-16T13:55:56;9.91;78.65
64833;HTU21D;51290;45.060;38.948;2024-01-16T13:58:23;9.89;78.68
64833;HTU21D;51290;45.060;38.948;2024-01-16T14:00:50;9.89;78.75
64833;HTU21D;51290;45.060;38.948;2024-01-16T14:03:16;9.88;78.79
64833;HTU21D;51290;45.060;38.948;2024-01-16T14:05:43;9.86;78.80
64833;HTU21D;51290;45.060;38.948;2024-01-16T14:08:09;9.84;79.01
64833;HTU21D;51290;45.060;38.948;2024-01-16T14:10:38;9.83;79.10
64833;HTU21D;51290;45.060;38.948;2024-01-16T14:13:05;9.81;79.33
64833;HTU21D;51290;45.060;38.948;2024-01-16T14:15:31;9.78;79.56
64833;HTU21D;51290;45.060;38.948;2024-01-16T14:17:57;9.77;79.77
64833;HTU21D;51290;45.060;38.948;2024-01-16T14:20:24;9.76;80.28
64833;HTU21D;51290;45.060;38.948;2024-01-16T14:22:56;9.72;80.41
64833;HTU21D;51290;45.060;38.948;2024-01-16T14:25:23;9.69;80.84
64833;HTU21D;51290;45.060;38.948;2024-01-16T14:30:24;9.67;81.65
64833;HTU21D;51290;45.060;38.948;2024-01-16T14:32:51;9.67;82.08
64833;HTU21D;51290;45.060;38.948;2024-01-16T14:35:19;9.66;82.48
64833;HTU21D;51290;45.060;38.948;2024-01-16T14:37:45;9.67;82.60
64833;HTU21D;51290;45.060;38.948;2024-01-16T14:40:12;9.66;82.62
64833;HTU21D;51290;45.060;38.948;2024-01-16T14:42:55;9.66;82.94
64833;HTU21D;51290;45.060;38.948;2024-01-16T14:45:25;9.66;83.12
64833;HTU21D;51290;45.060;38.948;2024-01-16T14:47:53;9.66;83.31
64833;HTU21D;51290;45.060;38.948;2024-01-16T14:50:22;9.65;83.22
64833;HTU21D;51290;45.060;38.948;2024-01-16T14:52:50;9.65;83.39
64833;HTU21D;51290;45.060;38.948;2024-01-16T14:55:17;9.64;83.51
64833;HTU21D;51290;45.060;38.948;2024-01-16T14:57:43;9.63;83.53
64833;HTU21D;51290;45.060;38.948;2024-01-16T15:00:17;9.63;83.67
64833;HTU21D;51290;45.060;38.948;2024-01-16T15:02:49;9.63;83.65
64833;HTU21D;51290;45.060;38.948;2024-01-16T15:05:16;9.60;83.65
64833;HTU21D;51290;45.060;38.948;2024-01-16T15:07:43;9.57;83.66
64833;HTU21D;51290;45.060;38.948;2024-01-16T15:10:10;9.59;83.73
64833;HTU21D;51290;45.060;38.948;2024-01-16T15:12:44;9.57;83.73
64833;HTU21D;51290;45.060;38.948;2024-01-16T15:15:12;9.56;83.76
64833;HTU21D;51290;45.060;38.948;2024-01-16T15:17:39;9.54;83.81